Airfield :
LOGIN :

Register | Disclaimer

   EN    FR    IT 

 










Legend :    VFR   Marginal VFR   IFR   Intensive IFR   Very Intensive IFR
Visi :
Ceiling :
>= 8 km
>= 3000ft
5 to 8 km
1000 to 3000 ft
1500m to 5 km
500 to 1000 ft
800 to 1500m
200 to 500 ft
< 800m
< 200 ft
Symbols :   Thunderstorms  Fog  Heavy snow  Heavy precipitations  Wind > 20 kt
SIGMETs :     Misc.  Thunderstorms  Icing  Turbulence  Mountain Waves  Volcanic Ashes







- Airport Elevation : 616 ft
- IATA code : PUF
- Download approach charts


LFBP - Pau

CURRENT METAR :
  • 280030Z AUTO 08003KT CAVOK 20/17 Q1013 NOSIG

EXPIRED METARs :
  • 280000Z AUTO VRB03KT CAVOK 21/18 Q1013 NOSIG
  • 272330Z AUTO VRB02KT CAVOK 22/17 Q1013 NOSIG
  • 272300Z AUTO VRB03KT CAVOK 23/17 Q1013 NOSIG
  • 272230Z AUTO 10005KT CAVOK 23/18 Q1013 NOSIG

TAF TAF LFBP
Valid from the 28 at 00:00 until the 29 at 00:00 UTC


272300Z 2800/2824 08008KT CAVOK
PROB30
TEMPO 2815/2818 FEW060CB
BECMG 2818/2820 30010KT
TEMPO 2820/2824 28010G20KT BKN008
No reported NOTAMs for that airfield.



MET'MAP, your aeronautical weather chart ! - Copyright ORBIFLY December 2007 - Disclaimer

ORBIFLY MET'MAP TEAM :

Programming & Development : Alexandra Zaïnal
Concept & Development : Baudouin d'Aumeries
Co-Development & Prog : Marc-Olivier Méhu
Technical & hardware support : Manuel Goepfert

Contact : metmap@orbifly.com




SOURCES & CREDITS :

   NOAA